sensor_id;sensor_type;location;lat;lon;timestamp;temperature;humidity
19888;DHT22;10106;51.332;12.336;2022-09-09T00:01:28;14.60;99.90
19888;DHT22;10106;51.332;12.336;2022-09-09T00:04:34;14.60;99.90
19888;DHT22;10106;51.332;12.336;2022-09-09T00:10:07;14.60;99.90
19888;DHT22;10106;51.332;12.336;2022-09-09T00:15:29;14.60;99.90
19888;DHT22;10106;51.332;12.336;2022-09-09T00:21:17;14.70;99.90
19888;DHT22;10106;51.332;12.336;2022-09-09T00:23:47;14.70;99.90
19888;DHT22;10106;51.332;12.336;2022-09-09T00:31:38;14.70;99.90
19888;DHT22;10106;51.332;12.336;2022-09-09T00:34:23;14.80;99.90
19888;DHT22;10106;51.332;12.336;2022-09-09T00:36:52;14.80;99.90
19888;DHT22;10106;51.332;12.336;2022-09-09T00:42:29;14.70;99.90
19888;DHT22;10106;51.332;12.336;2022-09-09T00:45:02;14.70;99.90
19888;DHT22;10106;51.332;12.336;2022-09-09T00:47:44;14.70;99.90
19888;DHT22;10106;51.332;12.336;2022-09-09T00:53:23;14.60;99.90
19888;DHT22;10106;51.332;12.336;2022-09-09T00:58:33;14.50;99.90
19888;DHT22;10106;51.332;12.336;2022-09-09T01:01:05;14.40;99.90
19888;DHT22;10106;51.332;12.336;2022-09-09T01:03:55;14.40;99.90
19888;DHT22;10106;51.332;12.336;2022-09-09T01:06:32;14.40;99.90
19888;DHT22;10106;51.332;12.336;2022-09-09T01:14:48;14.30;99.90
19888;DHT22;10106;51.332;12.336;2022-09-09T01:17:28;14.30;99.90
19888;DHT22;10106;51.332;12.336;2022-09-09T01:20:12;14.30;99.90
19888;DHT22;10106;51.332;12.336;2022-09-09T01:28:36;14.20;99.90
19888;DHT22;10106;51.332;12.336;2022-09-09T01:31:04;14.30;99.90
19888;DHT22;10106;51.332;12.336;2022-09-09T01:33:31;14.20;99.90
19888;DHT22;10106;51.332;12.336;2022-09-09T01:38:32;14.20;99.90
19888;DHT22;10106;51.332;12.336;2022-09-09T01:41:00;14.20;99.90
19888;DHT22;10106;51.332;12.336;2022-09-09T01:43:27;14.20;99.90
19888;DHT22;10106;51.332;12.336;2022-09-09T01:45:54;14.20;99.90
19888;DHT22;10106;51.332;12.336;2022-09-09T01:48:22;14.30;99.90
19888;DHT22;10106;51.332;12.336;2022-09-09T01:50:49;14.20;99.90
19888;DHT22;10106;51.332;12.336;2022-09-09T01:53:17;14.20;99.90
19888;DHT22;10106;51.332;12.336;2022-09-09T01:56:02;14.20;99.90
19888;DHT22;10106;51.332;12.336;2022-09-09T01:59:15;14.20;99.90
19888;DHT22;10106;51.332;12.336;2022-09-09T02:01:53;14.20;99.90
19888;DHT22;10106;51.332;12.336;2022-09-09T02:06:57;14.20;99.90
19888;DHT22;10106;51.332;12.336;2022-09-09T02:09:24;14.20;99.90
19888;DHT22;10106;51.332;12.336;2022-09-09T02:12:13;14.20;99.90
19888;DHT22;10106;51.332;12.336;2022-09-09T02:14:42;14.10;99.90
19888;DHT22;10106;51.332;12.336;2022-09-09T02:17:14;14.10;99.90
19888;DHT22;10106;51.332;12.336;2022-09-09T02:19:47;14.10;99.90
19888;DHT22;10106;51.332;12.336;2022-09-09T02:22:17;14.10;99.90
19888;DHT22;10106;51.332;12.336;2022-09-09T02:24:45;14.10;99.90
19888;DHT22;10106;51.332;12.336;2022-09-09T02:27:12;14.20;99.90
19888;DHT22;10106;51.332;12.336;2022-09-09T02:29:42;14.10;99.90
19888;DHT22;10106;51.332;12.336;2022-09-09T02:32:12;14.10;99.90
19888;DHT22;10106;51.332;12.336;2022-09-09T02:34:43;14.10;99.90
19888;DHT22;10106;51.332;12.336;2022-09-09T02:37:11;14.10;99.90
19888;DHT22;10106;51.332;12.336;2022-09-09T02:39:38;14.10;99.90
19888;DHT22;10106;51.332;12.336;2022-09-09T02:42:04;14.00;99.90
19888;DHT22;10106;51.332;12.336;2022-09-09T02:44:30;14.00;99.90
19888;DHT22;10106;51.332;12.336;2022-09-09T02:52:18;14.00;99.90
19888;DHT22;10106;51.332;12.336;2022-09-09T02:54:46;14.00;99.90
19888;DHT22;10106;51.332;12.336;2022-09-09T02:57:19;14.00;99.90
19888;DHT22;10106;51.332;12.336;2022-09-09T02:59:46;14.00;99.90
19888;DHT22;10106;51.332;12.336;2022-09-09T03:02:13;14.00;99.90
19888;DHT22;10106;51.332;12.336;2022-09-09T03:04:39;14.00;99.90
19888;DHT22;10106;51.332;12.336;2022-09-09T03:07:05;14.00;99.90
19888;DHT22;10106;51.332;12.336;2022-09-09T03:09:31;14.10;99.90
19888;DHT22;10106;51.332;12.336;2022-09-09T03:11:58;14.10;99.90
19888;DHT22;10106;51.332;12.336;2022-09-09T03:14:24;14.00;99.90
19888;DHT22;10106;51.332;12.336;2022-09-09T03:16:54;14.00;99.90
19888;DHT22;10106;51.332;12.336;2022-09-09T03:19:20;14.00;99.90
19888;DHT22;10106;51.332;12.336;2022-09-09T03:21:47;14.00;99.90
19888;DHT22;10106;51.332;12.336;2022-09-09T03:24:13;14.00;99.90
19888;DHT22;10106;51.332;12.336;2022-09-09T03:26:40;14.00;99.90
19888;DHT22;10106;51.332;12.336;2022-09-09T03:29:07;13.90;99.90
19888;DHT22;10106;51.332;12.336;2022-09-09T03:31:33;13.90;99.90
19888;DHT22;10106;51.332;12.336;2022-09-09T03:33:59;13.90;99.90
19888;DHT22;10106;51.332;12.336;2022-09-09T03:36:26;13.90;99.90
19888;DHT22;10106;51.332;12.336;2022-09-09T03:38:52;13.90;99.90
19888;DHT22;10106;51.332;12.336;2022-09-09T03:41:19;13.90;99.90
19888;DHT22;10106;51.332;12.336;2022-09-09T03:43:47;13.90;99.90
19888;DHT22;10106;51.332;12.336;2022-09-09T03:46:13;13.90;99.90
19888;DHT22;10106;51.332;12.336;2022-09-09T03:48:38;13.90;99.90
19888;DHT22;10106;51.332;12.336;2022-09-09T03:51:04;13.90;99.90
19888;DHT22;10106;51.332;12.336;2022-09-09T03:53:30;13.90;99.90
19888;DHT22;10106;51.332;12.336;2022-09-09T03:55:56;13.80;99.90
19888;DHT22;10106;51.332;12.336;2022-09-09T03:58:25;13.80;99.90
19888;DHT22;10106;51.332;12.336;2022-09-09T04:00:56;13.80;99.90
19888;DHT22;10106;51.332;12.336;2022-09-09T04:03:23;13.80;99.90
19888;DHT22;10106;51.332;12.336;2022-09-09T04:05:54;13.80;99.90
19888;DHT22;10106;51.332;12.336;2022-09-09T04:08:21;13.80;99.90
19888;DHT22;10106;51.332;12.336;2022-09-09T04:10:50;13.70;99.90
19888;DHT22;10106;51.332;12.336;2022-09-09T04:13:17;13.70;99.90
19888;DHT22;10106;51.332;12.336;2022-09-09T04:15:44;13.70;99.90
19888;DHT22;10106;51.332;12.336;2022-09-09T04:18:10;13.70;99.90
19888;DHT22;10106;51.332;12.336;2022-09-09T04:20:37;13.70;99.90
19888;DHT22;10106;51.332;12.336;2022-09-09T04:23:03;13.70;99.90
19888;DHT22;10106;51.332;12.336;2022-09-09T04:25:29;13.80;99.90
19888;DHT22;10106;51.332;12.336;2022-09-09T04:27:55;13.80;99.90
19888;DHT22;10106;51.332;12.336;2022-09-09T04:30:21;13.80;99.90
19888;DHT22;10106;51.332;12.336;2022-09-09T04:32:47;13.80;99.90
19888;DHT22;10106;51.332;12.336;2022-09-09T04:35:13;13.90;99.90
19888;DHT22;10106;51.332;12.336;2022-09-09T04:37:38;13.90;99.90
19888;DHT22;10106;51.332;12.336;2022-09-09T04:40:04;13.90;99.90
19888;DHT22;10106;51.332;12.336;2022-09-09T04:42:37;14.00;99.90
19888;DHT22;10106;51.332;12.336;2022-09-09T04:45:04;14.00;99.90
19888;DHT22;10106;51.332;12.336;2022-09-09T04:47:30;14.00;99.90
19888;DHT22;10106;51.332;12.336;2022-09-09T04:49:56;14.00;99.90
19888;DHT22;10106;51.332;12.336;2022-09-09T04:52:22;14.10;99.90
19888;DHT22;10106;51.332;12.336;2022-09-09T04:54:47;14.10;99.90
19888;DHT22;10106;51.332;12.336;2022-09-09T04:57:13;14.10;99.90
19888;DHT22;10106;51.332;12.336;2022-09-09T04:59:39;14.20;99.90
19888;DHT22;10106;51.332;12.336;2022-09-09T05:07:15;14.40;99.90
19888;DHT22;10106;51.332;12.336;2022-09-09T05:09:41;14.40;99.90
19888;DHT22;10106;51.332;12.336;2022-09-09T05:12:07;14.50;99.90
19888;DHT22;10106;51.332;12.336;2022-09-09T05:14:33;14.60;99.90
19888;DHT22;10106;51.332;12.336;2022-09-09T05:17:01;14.70;99.90
19888;DHT22;10106;51.332;12.336;2022-09-09T05:19:26;14.80;99.90
19888;DHT22;10106;51.332;12.336;2022-09-09T05:21:52;14.90;99.90
19888;DHT22;10106;51.332;12.336;2022-09-09T05:24:17;15.00;99.90
19888;DHT22;10106;51.332;12.336;2022-09-09T05:26:43;15.10;99.90
19888;DHT22;10106;51.332;12.336;2022-09-09T05:29:09;15.10;99.90
19888;DHT22;10106;51.332;12.336;2022-09-09T05:31:35;15.20;99.90
19888;DHT22;10106;51.332;12.336;2022-09-09T05:34:01;15.20;99.90
19888;DHT22;10106;51.332;12.336;2022-09-09T05:36:29;15.30;99.90
19888;DHT22;10106;51.332;12.336;2022-09-09T05:38:55;15.30;99.90
19888;DHT22;10106;51.332;12.336;2022-09-09T05:41:21;15.40;99.90
19888;DHT22;10106;51.332;12.336;2022-09-09T05:43:48;15.40;99.90
19888;DHT22;10106;51.332;12.336;2022-09-09T05:46:24;15.50;99.90
19888;DHT22;10106;51.332;12.336;2022-09-09T05:48:51;15.50;99.90
19888;DHT22;10106;51.332;12.336;2022-09-09T05:51:19;15.60;99.90
19888;DHT22;10106;51.332;12.336;2022-09-09T05:53:47;15.70;99.90
19888;DHT22;10106;51.332;12.336;2022-09-09T05:56:21;15.70;99.90
19888;DHT22;10106;51.332;12.336;2022-09-09T05:58:51;15.80;99.90
19888;DHT22;10106;51.332;12.336;2022-09-09T06:01:21;15.90;99.90
19888;DHT22;10106;51.332;12.336;2022-09-09T06:03:48;16.10;99.90
19888;DHT22;10106;51.332;12.336;2022-09-09T06:06:17;16.20;99.90
19888;DHT22;10106;51.332;12.336;2022-09-09T06:08:44;16.20;99.90
19888;DHT22;10106;51.332;12.336;2022-09-09T06:11:13;16.30;99.90
19888;DHT22;10106;51.332;12.336;2022-09-09T06:13:39;16.50;99.90
19888;DHT22;10106;51.332;12.336;2022-09-09T06:16:15;16.50;99.90
19888;DHT22;10106;51.332;12.336;2022-09-09T06:18:42;16.60;99.90
19888;DHT22;10106;51.332;12.336;2022-09-09T06:23:47;16.70;99.90
19888;DHT22;10106;51.332;12.336;2022-09-09T06:26:19;16.70;99.90
19888;DHT22;10106;51.332;12.336;2022-09-09T06:28:47;16.70;99.90
19888;DHT22;10106;51.332;12.336;2022-09-09T06:31:17;16.80;99.90
19888;DHT22;10106;51.332;12.336;2022-09-09T06:33:47;16.90;99.90
19888;DHT22;10106;51.332;12.336;2022-09-09T06:36:15;16.90;99.90
19888;DHT22;10106;51.332;12.336;2022-09-09T06:38:44;17.00;99.90
19888;DHT22;10106;51.332;12.336;2022-09-09T06:41:11;17.00;99.90
19888;DHT22;10106;51.332;12.336;2022-09-09T06:43:37;17.10;99.90
19888;DHT22;10106;51.332;12.336;2022-09-09T06:46:10;17.10;99.90
19888;DHT22;10106;51.332;12.336;2022-09-09T06:48:36;17.10;99.90
19888;DHT22;10106;51.332;12.336;2022-09-09T06:51:10;17.00;99.90
19888;DHT22;10106;51.332;12.336;2022-09-09T06:53:37;17.10;99.90
19888;DHT22;10106;51.332;12.336;2022-09-09T07:01:03;17.50;99.90
19888;DHT22;10106;51.332;12.336;2022-09-09T07:03:32;18.30;99.90
19888;DHT22;10106;51.332;12.336;2022-09-09T07:08:25;22.10;99.90
19888;DHT22;10106;51.332;12.336;2022-09-09T07:10:54;22.20;99.90
19888;DHT22;10106;51.332;12.336;2022-09-09T07:13:26;21.80;99.90
19888;DHT22;10106;51.332;12.336;2022-09-09T07:15:53;21.90;99.90
19888;DHT22;10106;51.332;12.336;2022-09-09T07:18:19;23.40;99.90
19888;DHT22;10106;51.332;12.336;2022-09-09T07:20:55;26.00;99.90
19888;DHT22;10106;51.332;12.336;2022-09-09T07:23:23;28.30;96.40
19888;DHT22;10106;51.332;12.336;2022-09-09T07:25:49;29.70;87.30
19888;DHT22;10106;51.332;12.336;2022-09-09T07:28:15;31.40;77.10
19888;DHT22;10106;51.332;12.336;2022-09-09T07:30:41;32.40;69.70
19888;DHT22;10106;51.332;12.336;2022-09-09T07:33:08;33.40;64.70
19888;DHT22;10106;51.332;12.336;2022-09-09T07:35:35;33.50;61.00
19888;DHT22;10106;51.332;12.336;2022-09-09T07:38:02;33.60;58.90
19888;DHT22;10106;51.332;12.336;2022-09-09T07:40:29;33.30;57.80
19888;DHT22;10106;51.332;12.336;2022-09-09T07:42:55;33.40;58.70
19888;DHT22;10106;51.332;12.336;2022-09-09T07:45:21;34.20;57.10
19888;DHT22;10106;51.332;12.336;2022-09-09T07:47:47;34.60;55.30
19888;DHT22;10106;51.332;12.336;2022-09-09T07:50:14;34.00;55.00
19888;DHT22;10106;51.332;12.336;2022-09-09T07:52:40;34.00;55.00
19888;DHT22;10106;51.332;12.336;2022-09-09T07:55:06;34.70;54.20
19888;DHT22;10106;51.332;12.336;2022-09-09T07:57:32;35.20;52.90
19888;DHT22;10106;51.332;12.336;2022-09-09T07:59:57;35.00;51.50
19888;DHT22;10106;51.332;12.336;2022-09-09T08:02:23;33.80;53.30
19888;DHT22;10106;51.332;12.336;2022-09-09T08:04:50;33.40;54.10
19888;DHT22;10106;51.332;12.336;2022-09-09T08:07:17;31.50;55.00
19888;DHT22;10106;51.332;12.336;2022-09-09T08:09:42;32.10;57.40
19888;DHT22;10106;51.332;12.336;2022-09-09T08:12:09;31.90;57.30
19888;DHT22;10106;51.332;12.336;2022-09-09T08:14:34;32.00;57.50
19888;DHT22;10106;51.332;12.336;2022-09-09T08:17:00;31.80;57.50
19888;DHT22;10106;51.332;12.336;2022-09-09T08:21:54;29.10;63.00
19888;DHT22;10106;51.332;12.336;2022-09-09T08:24:20;27.70;69.30
19888;DHT22;10106;51.332;12.336;2022-09-09T08:26:47;26.50;76.70
19888;DHT22;10106;51.332;12.336;2022-09-09T08:29:16;25.60;85.70
19888;DHT22;10106;51.332;12.336;2022-09-09T08:31:45;26.10;90.10
19888;DHT22;10106;51.332;12.336;2022-09-09T08:34:12;28.40;81.70
19888;DHT22;10106;51.332;12.336;2022-09-09T08:36:40;30.60;71.40
19888;DHT22;10106;51.332;12.336;2022-09-09T08:39:08;32.60;63.60
19888;DHT22;10106;51.332;12.336;2022-09-09T08:47:35;35.70;53.30
19888;DHT22;10106;51.332;12.336;2022-09-09T08:50:25;35.30;52.40
19888;DHT22;10106;51.332;12.336;2022-09-09T08:57:55;35.30;51.50
19888;DHT22;10106;51.332;12.336;2022-09-09T09:00:21;35.20;51.10
19888;DHT22;10106;51.332;12.336;2022-09-09T09:03:06;35.20;51.20
19888;DHT22;10106;51.332;12.336;2022-09-09T09:05:51;34.40;52.10
19888;DHT22;10106;51.332;12.336;2022-09-09T09:11:17;35.70;51.20
19888;DHT22;10106;51.332;12.336;2022-09-09T09:14:07;36.40;49.70
19888;DHT22;10106;51.332;12.336;2022-09-09T09:19:16;35.80;47.90
19888;DHT22;10106;51.332;12.336;2022-09-09T09:24:30;36.20;47.20
19888;DHT22;10106;51.332;12.336;2022-09-09T09:27:00;34.00;48.20
19888;DHT22;10106;51.332;12.336;2022-09-09T09:29:29;31.40;51.80
19888;DHT22;10106;51.332;12.336;2022-09-09T09:31:56;30.10;55.60
19888;DHT22;10106;51.332;12.336;2022-09-09T09:34:24;31.40;55.00
19888;DHT22;10106;51.332;12.336;2022-09-09T09:36:57;32.50;53.00
19888;DHT22;10106;51.332;12.336;2022-09-09T09:39:31;31.50;52.90
19888;DHT22;10106;51.332;12.336;2022-09-09T09:42:12;31.20;54.60
19888;DHT22;10106;51.332;12.336;2022-09-09T09:44:41;30.60;55.70
19888;DHT22;10106;51.332;12.336;2022-09-09T09:47:19;29.60;57.80
19888;DHT22;10106;51.332;12.336;2022-09-09T09:49:59;28.50;61.70
19888;DHT22;10106;51.332;12.336;2022-09-09T09:52:27;27.90;64.90
19888;DHT22;10106;51.332;12.336;2022-09-09T09:54:54;27.30;68.60
19888;DHT22;10106;51.332;12.336;2022-09-09T09:57:29;27.20;71.80
19888;DHT22;10106;51.332;12.336;2022-09-09T10:00:15;28.20;72.20
19888;DHT22;10106;51.332;12.336;2022-09-09T10:02:43;28.30;69.80
19888;DHT22;10106;51.332;12.336;2022-09-09T10:05:29;27.40;72.10
19888;DHT22;10106;51.332;12.336;2022-09-09T10:08:13;26.80;75.90
19888;DHT22;10106;51.332;12.336;2022-09-09T10:10:48;26.40;80.10
19888;DHT22;10106;51.332;12.336;2022-09-09T10:19:10;25.00;92.20
19888;DHT22;10106;51.332;12.336;2022-09-09T10:27:44;24.60;96.10
19888;DHT22;10106;51.332;12.336;2022-09-09T10:30:20;24.70;96.40
19888;DHT22;10106;51.332;12.336;2022-09-09T10:38:11;24.80;97.00
19888;DHT22;10106;51.332;12.336;2022-09-09T10:43:42;23.70;99.40
19888;DHT22;10106;51.332;12.336;2022-09-09T10:54:59;23.20;99.90
19888;DHT22;10106;51.332;12.336;2022-09-09T10:57:36;23.50;99.90
19888;DHT22;10106;51.332;12.336;2022-09-09T11:00:14;23.90;99.90
19888;DHT22;10106;51.332;12.336;2022-09-09T11:02:41;24.00;99.90
19888;DHT22;10106;51.332;12.336;2022-09-09T11:08:05;23.70;99.20
19888;DHT22;10106;51.332;12.336;2022-09-09T11:16:49;23.70;99.90
19888;DHT22;10106;51.332;12.336;2022-09-09T11:19:44;23.50;99.90
19888;DHT22;10106;51.332;12.336;2022-09-09T11:22:30;23.60;99.90
19888;DHT22;10106;51.332;12.336;2022-09-09T11:27:33;24.10;99.90
19888;DHT22;10106;51.332;12.336;2022-09-09T11:30:21;24.50;98.90
19888;DHT22;10106;51.332;12.336;2022-09-09T11:35:46;25.00;95.90
19888;DHT22;10106;51.332;12.336;2022-09-09T11:41:34;25.50;93.90
19888;DHT22;10106;51.332;12.336;2022-09-09T11:44:10;25.60;92.80
19888;DHT22;10106;51.332;12.336;2022-09-09T11:46:38;25.50;91.70
19888;DHT22;10106;51.332;12.336;2022-09-09T11:49:06;25.40;91.60
19888;DHT22;10106;51.332;12.336;2022-09-09T11:51:49;25.30;91.20
19888;DHT22;10106;51.332;12.336;2022-09-09T11:54:32;25.30;91.10
19888;DHT22;10106;51.332;12.336;2022-09-09T11:56:59;25.30;91.10
19888;DHT22;10106;51.332;12.336;2022-09-09T11:59:25;25.30;91.00
19888;DHT22;10106;51.332;12.336;2022-09-09T12:04:46;25.40;91.10
19888;DHT22;10106;51.332;12.336;2022-09-09T12:07:33;25.50;91.30
19888;DHT22;10106;51.332;12.336;2022-09-09T12:12:38;25.20;91.60
19888;DHT22;10106;51.332;12.336;2022-09-09T12:17:45;25.00;91.80
19888;DHT22;10106;51.332;12.336;2022-09-09T12:23:19;25.20;92.90
19888;DHT22;10106;51.332;12.336;2022-09-09T12:28:47;24.90;93.80
19888;DHT22;10106;51.332;12.336;2022-09-09T12:34:17;25.20;92.60
19888;DHT22;10106;51.332;12.336;2022-09-09T12:36:47;25.30;92.90
19888;DHT22;10106;51.332;12.336;2022-09-09T12:39:27;25.40;92.40
19888;DHT22;10106;51.332;12.336;2022-09-09T12:41:55;25.20;89.10
19888;DHT22;10106;51.332;12.336;2022-09-09T12:44:24;25.20;90.10
19888;DHT22;10106;51.332;12.336;2022-09-09T12:46:51;25.00;88.40
19888;DHT22;10106;51.332;12.336;2022-09-09T12:49:28;24.60;90.40
19888;DHT22;10106;51.332;12.336;2022-09-09T12:51:55;24.60;91.60
19888;DHT22;10106;51.332;12.336;2022-09-09T12:54:23;25.00;91.20
19888;DHT22;10106;51.332;12.336;2022-09-09T12:56:49;25.10;88.70
19888;DHT22;10106;51.332;12.336;2022-09-09T12:59:39;25.20;89.00
19888;DHT22;10106;51.332;12.336;2022-09-09T13:02:21;25.20;85.60
19888;DHT22;10106;51.332;12.336;2022-09-09T13:04:47;25.00;86.00
19888;DHT22;10106;51.332;12.336;2022-09-09T13:07:13;25.10;87.30
19888;DHT22;10106;51.332;12.336;2022-09-09T13:09:41;25.00;86.40
19888;DHT22;10106;51.332;12.336;2022-09-09T13:12:15;24.70;86.90
19888;DHT22;10106;51.332;12.336;2022-09-09T13:14:44;24.70;88.40
19888;DHT22;10106;51.332;12.336;2022-09-09T13:17:19;24.60;88.00
19888;DHT22;10106;51.332;12.336;2022-09-09T13:19:46;24.30;88.30
19888;DHT22;10106;51.332;12.336;2022-09-09T13:22:33;24.00;90.50
19888;DHT22;10106;51.332;12.336;2022-09-09T13:25:13;23.70;91.70
19888;DHT22;10106;51.332;12.336;2022-09-09T13:27:53;23.50;93.20
19888;DHT22;10106;51.332;12.336;2022-09-09T13:30:26;23.30;94.80
19888;DHT22;10106;51.332;12.336;2022-09-09T13:35:55;23.40;94.80
19888;DHT22;10106;51.332;12.336;2022-09-09T13:38:22;23.50;95.50
19888;DHT22;10106;51.332;12.336;2022-09-09T13:41:02;23.50;95.90
19888;DHT22;10106;51.332;12.336;2022-09-09T13:43:33;23.40;95.00
19888;DHT22;10106;51.332;12.336;2022-09-09T13:46:06;23.40;95.90
19888;DHT22;10106;51.332;12.336;2022-09-09T13:48:57;23.40;95.50
19888;DHT22;10106;51.332;12.336;2022-09-09T13:51:35;23.40;96.40
19888;DHT22;10106;51.332;12.336;2022-09-09T13:54:06;23.50;96.80
19888;DHT22;10106;51.332;12.336;2022-09-09T13:56:36;23.30;99.00
19888;DHT22;10106;51.332;12.336;2022-09-09T13:59:16;23.20;99.90
19888;DHT22;10106;51.332;12.336;2022-09-09T14:01:43;22.60;97.60
19888;DHT22;10106;51.332;12.336;2022-09-09T14:04:10;21.60;99.90
19888;DHT22;10106;51.332;12.336;2022-09-09T14:06:36;21.40;99.40
19888;DHT22;10106;51.332;12.336;2022-09-09T14:09:04;21.10;99.90
19888;DHT22;10106;51.332;12.336;2022-09-09T14:11:30;20.70;99.90
19888;DHT22;10106;51.332;12.336;2022-09-09T14:13:55;20.50;99.90
19888;DHT22;10106;51.332;12.336;2022-09-09T14:16:21;20.40;99.90
19888;DHT22;10106;51.332;12.336;2022-09-09T14:18:47;20.20;99.90
19888;DHT22;10106;51.332;12.336;2022-09-09T14:21:14;20.20;99.90
19888;DHT22;10106;51.332;12.336;2022-09-09T14:23:41;20.40;99.90
19888;DHT22;10106;51.332;12.336;2022-09-09T14:26:08;20.50;99.90
19888;DHT22;10106;51.332;12.336;2022-09-09T14:28:35;20.70;99.90
19888;DHT22;10106;51.332;12.336;2022-09-09T14:31:03;20.90;99.90
19888;DHT22;10106;51.332;12.336;2022-09-09T14:33:29;21.00;99.90
19888;DHT22;10106;51.332;12.336;2022-09-09T14:36:00;21.20;99.90
19888;DHT22;10106;51.332;12.336;2022-09-09T14:38:29;21.40;99.90
19888;DHT22;10106;51.332;12.336;2022-09-09T14:40:55;21.50;99.90
19888;DHT22;10106;51.332;12.336;2022-09-09T14:43:21;21.60;99.90
19888;DHT22;10106;51.332;12.336;2022-09-09T14:45:47;21.60;99.90
19888;DHT22;10106;51.332;12.336;2022-09-09T14:48:14;21.70;99.90
19888;DHT22;10106;51.332;12.336;2022-09-09T14:50:41;21.80;99.90
19888;DHT22;10106;51.332;12.336;2022-09-09T14:53:07;21.90;99.90
19888;DHT22;10106;51.332;12.336;2022-09-09T14:55:34;21.90;99.90
19888;DHT22;10106;51.332;12.336;2022-09-09T14:57:59;21.90;99.90
19888;DHT22;10106;51.332;12.336;2022-09-09T15:00:25;22.10;99.90
19888;DHT22;10106;51.332;12.336;2022-09-09T15:02:54;22.20;99.90
19888;DHT22;10106;51.332;12.336;2022-09-09T15:05:20;22.40;99.90
19888;DHT22;10106;51.332;12.336;2022-09-09T15:07:46;22.60;99.90
19888;DHT22;10106;51.332;12.336;2022-09-09T15:10:13;22.70;99.90
19888;DHT22;10106;51.332;12.336;2022-09-09T15:12:39;22.70;99.90
19888;DHT22;10106;51.332;12.336;2022-09-09T15:15:07;22.70;99.90
19888;DHT22;10106;51.332;12.336;2022-09-09T15:17:33;22.70;99.90
19888;DHT22;10106;51.332;12.336;2022-09-09T15:19:59;22.60;99.90
19888;DHT22;10106;51.332;12.336;2022-09-09T15:22:25;22.40;99.90
19888;DHT22;10106;51.332;12.336;2022-09-09T15:24:50;22.30;99.90
19888;DHT22;10106;51.332;12.336;2022-09-09T15:27:16;22.20;99.90
19888;DHT22;10106;51.332;12.336;2022-09-09T15:29:42;22.10;99.90
19888;DHT22;10106;51.332;12.336;2022-09-09T15:32:09;22.10;99.90
19888;DHT22;10106;51.332;12.336;2022-09-09T15:34:35;22.10;99.90
19888;DHT22;10106;51.332;12.336;2022-09-09T15:37:00;22.00;99.90
19888;DHT22;10106;51.332;12.336;2022-09-09T15:39:26;22.00;99.90
19888;DHT22;10106;51.332;12.336;2022-09-09T15:41:51;22.00;99.90
19888;DHT22;10106;51.332;12.336;2022-09-09T15:44:17;22.10;99.90
19888;DHT22;10106;51.332;12.336;2022-09-09T15:46:52;22.20;99.90
19888;DHT22;10106;51.332;12.336;2022-09-09T15:49:26;22.10;99.90
19888;DHT22;10106;51.332;12.336;2022-09-09T15:51:58;22.10;99.90
19888;DHT22;10106;51.332;12.336;2022-09-09T15:54:32;22.00;99.90
19888;DHT22;10106;51.332;12.336;2022-09-09T15:57:03;21.90;99.90
19888;DHT22;10106;51.332;12.336;2022-09-09T15:59:30;21.80;99.90
19888;DHT22;10106;51.332;12.336;2022-09-09T16:01:56;21.70;99.90
19888;DHT22;10106;51.332;12.336;2022-09-09T16:04:24;21.60;99.90
19888;DHT22;10106;51.332;12.336;2022-09-09T16:06:59;21.50;99.90
19888;DHT22;10106;51.332;12.336;2022-09-09T16:09:26;21.50;99.90
19888;DHT22;10106;51.332;12.336;2022-09-09T16:11:52;21.50;99.90
19888;DHT22;10106;51.332;12.336;2022-09-09T16:14:19;21.40;99.90
19888;DHT22;10106;51.332;12.336;2022-09-09T16:16:45;21.40;99.90
19888;DHT22;10106;51.332;12.336;2022-09-09T16:19:12;21.30;99.90
19888;DHT22;10106;51.332;12.336;2022-09-09T16:21:40;21.30;99.90
19888;DHT22;10106;51.332;12.336;2022-09-09T16:24:09;21.30;99.90
19888;DHT22;10106;51.332;12.336;2022-09-09T16:26:38;21.20;99.90
19888;DHT22;10106;51.332;12.336;2022-09-09T16:29:04;21.20;99.90
19888;DHT22;10106;51.332;12.336;2022-09-09T16:31:30;21.10;99.90
19888;DHT22;10106;51.332;12.336;2022-09-09T16:33:57;21.10;99.90
19888;DHT22;10106;51.332;12.336;2022-09-09T16:36:25;21.00;99.90
19888;DHT22;10106;51.332;12.336;2022-09-09T16:38:55;20.90;99.90
19888;DHT22;10106;51.332;12.336;2022-09-09T16:41:23;20.90;99.90
19888;DHT22;10106;51.332;12.336;2022-09-09T16:43:53;20.80;99.90
19888;DHT22;10106;51.332;12.336;2022-09-09T16:46:20;20.70;99.90
19888;DHT22;10106;51.332;12.336;2022-09-09T16:48:47;20.60;99.90
19888;DHT22;10106;51.332;12.336;2022-09-09T16:51:25;20.60;99.90
19888;DHT22;10106;51.332;12.336;2022-09-09T16:53:52;20.40;99.90
19888;DHT22;10106;51.332;12.336;2022-09-09T16:56:21;20.40;99.90
19888;DHT22;10106;51.332;12.336;2022-09-09T16:58:51;20.30;99.90
19888;DHT22;10106;51.332;12.336;2022-09-09T17:01:18;20.20;99.90
19888;DHT22;10106;51.332;12.336;2022-09-09T17:03:44;20.10;99.90
19888;DHT22;10106;51.332;12.336;2022-09-09T17:06:14;20.00;99.90
19888;DHT22;10106;51.332;12.336;2022-09-09T17:08:40;19.90;99.90
19888;DHT22;10106;51.332;12.336;2022-09-09T17:11:13;19.80;99.90
19888;DHT22;10106;51.332;12.336;2022-09-09T17:13:44;19.70;99.90
19888;DHT22;10106;51.332;12.336;2022-09-09T17:16:10;19.60;99.90
19888;DHT22;10106;51.332;12.336;2022-09-09T17:18:36;19.60;99.90
19888;DHT22;10106;51.332;12.336;2022-09-09T17:21:10;19.50;99.90
19888;DHT22;10106;51.332;12.336;2022-09-09T17:23:37;19.40;99.90
19888;DHT22;10106;51.332;12.336;2022-09-09T17:26:07;19.30;99.90
19888;DHT22;10106;51.332;12.336;2022-09-09T17:28:35;19.30;99.90
19888;DHT22;10106;51.332;12.336;2022-09-09T17:31:01;19.20;99.90
19888;DHT22;10106;51.332;12.336;2022-09-09T17:33:32;19.20;99.90
19888;DHT22;10106;51.332;12.336;2022-09-09T17:36:05;19.10;99.90
19888;DHT22;10106;51.332;12.336;2022-09-09T17:38:32;19.10;99.90
19888;DHT22;10106;51.332;12.336;2022-09-09T17:41:11;19.00;99.90
19888;DHT22;10106;51.332;12.336;2022-09-09T17:43:37;18.90;99.90
19888;DHT22;10106;51.332;12.336;2022-09-09T17:46:23;18.80;99.90
19888;DHT22;10106;51.332;12.336;2022-09-09T17:48:50;18.70;99.90
19888;DHT22;10106;51.332;12.336;2022-09-09T17:51:19;18.60;99.90
19888;DHT22;10106;51.332;12.336;2022-09-09T17:53:48;18.50;99.90
19888;DHT22;10106;51.332;12.336;2022-09-09T17:56:16;18.50;99.90
19888;DHT22;10106;51.332;12.336;2022-09-09T17:58:42;18.40;99.90
19888;DHT22;10106;51.332;12.336;2022-09-09T18:01:15;18.30;99.90